createdAt,value
2022-12-07T00:00:33.788Z,100.00
2022-12-07T00:01:37.017Z,100.00
2022-12-07T00:02:38.406Z,100.00
2022-12-07T00:03:40.609Z,100.00
2022-12-07T00:04:41.941Z,100.00
2022-12-07T00:05:43.284Z,100.00
2022-12-07T00:06:45.622Z,100.00
2022-12-07T00:07:47.024Z,100.00
2022-12-07T00:08:48.595Z,100.00
2022-12-07T00:09:49.907Z,100.00
2022-12-07T00:10:51.248Z,100.00
2022-12-07T00:11:52.753Z,100.00
2022-12-07T00:12:54.078Z,100.00
2022-12-07T00:13:57.075Z,100.00
2022-12-07T00:14:58.429Z,100.00
2022-12-07T00:16:26.268Z,100.00
2022-12-07T00:17:27.658Z,100.00
2022-12-07T00:18:28.991Z,100.00
2022-12-07T00:19:30.347Z,100.00
2022-12-07T00:20:31.797Z,100.00
2022-12-07T00:21:34.273Z,100.00
2022-12-07T00:22:35.662Z,100.00
2022-12-07T00:23:37.343Z,100.00
2022-12-07T00:24:38.693Z,100.00
2022-12-07T00:25:40.046Z,100.00
2022-12-07T00:26:41.975Z,100.00
2022-12-07T00:27:43.351Z,100.00
2022-12-07T00:28:51.878Z,100.00
2022-12-07T00:29:53.218Z,100.00
2022-12-07T00:31:00.298Z,100.00
2022-12-07T00:32:01.695Z,100.00
2022-12-07T00:33:03.179Z,100.00
2022-12-07T00:34:04.543Z,100.00
2022-12-07T00:35:06.080Z,100.00
2022-12-07T00:36:09.573Z,100.00
2022-12-07T00:37:11.004Z,100.00
2022-12-07T00:38:12.317Z,100.00
2022-12-07T00:39:13.677Z,100.00
2022-12-07T00:40:15.035Z,100.00
2022-12-07T00:41:18.099Z,100.00
2022-12-07T00:42:19.449Z,100.00
2022-12-07T00:43:20.795Z,100.00
2022-12-07T00:44:22.117Z,100.00
2022-12-07T00:45:23.461Z,100.00
2022-12-07T00:46:25.399Z,100.00
2022-12-07T00:47:26.853Z,100.00
2022-12-07T00:48:28.469Z,100.00
2022-12-07T00:49:29.868Z,100.00
2022-12-07T00:50:31.199Z,100.00
2022-12-07T00:51:35.562Z,100.00
2022-12-07T00:52:36.914Z,100.00
2022-12-07T00:53:41.561Z,100.00
2022-12-07T00:54:43.086Z,100.00
2022-12-07T00:55:44.779Z,100.00
2022-12-07T00:56:46.117Z,100.00
2022-12-07T00:57:47.514Z,100.00
2022-12-07T00:58:52.877Z,100.00
2022-12-07T00:59:54.287Z,100.00
2022-12-07T01:01:00.442Z,100.00
2022-12-07T01:02:01.831Z,100.00
2022-12-07T01:03:03.426Z,100.00
2022-12-07T01:04:05.010Z,100.00
2022-12-07T01:05:06.485Z,100.00
2022-12-07T01:06:07.900Z,100.00
2022-12-07T01:07:09.386Z,100.00
2022-12-07T01:08:10.773Z,100.00
2022-12-07T01:09:12.169Z,100.00
2022-12-07T01:10:14.396Z,100.00
2022-12-07T01:11:17.335Z,100.00
2022-12-07T01:12:18.665Z,100.00
2022-12-07T01:13:20.082Z,100.00
2022-12-07T01:14:21.569Z,100.00
2022-12-07T01:15:22.901Z,100.00
2022-12-07T01:16:25.847Z,100.00
2022-12-07T01:17:27.221Z,100.00
2022-12-07T01:18:29.946Z,100.00
2022-12-07T01:19:31.277Z,100.00
2022-12-07T01:20:32.665Z,100.00
2022-12-07T01:21:35.424Z,100.00
2022-12-07T01:22:40.206Z,100.00
2022-12-07T01:23:41.574Z,100.00
2022-12-07T01:24:42.901Z,100.00
2022-12-07T01:25:44.269Z,100.00
2022-12-07T01:26:45.575Z,100.00
2022-12-07T01:27:46.910Z,100.00
2022-12-07T01:28:48.503Z,100.00
2022-12-07T01:29:49.814Z,100.00
2022-12-07T01:30:57.321Z,100.00
2022-12-07T01:31:58.746Z,100.00
2022-12-07T01:33:00.108Z,100.00
2022-12-07T01:34:01.494Z,100.00
2022-12-07T01:35:02.824Z,100.00
2022-12-07T01:36:20.767Z,100.00
2022-12-07T01:37:22.310Z,100.00
2022-12-07T01:38:23.720Z,100.00
2022-12-07T01:39:25.054Z,100.00
2022-12-07T01:40:26.379Z,100.00
2022-12-07T01:41:29.076Z,100.00
2022-12-07T01:42:30.448Z,100.00
2022-12-07T01:43:33.133Z,100.00
2022-12-07T01:44:54.425Z,100.00
2022-12-07T01:45:56.576Z,100.00
2022-12-07T01:46:58.967Z,100.00
2022-12-07T01:48:00.486Z,100.00
2022-12-07T01:49:02.363Z,100.00
2022-12-07T01:50:04.071Z,100.00
2022-12-07T01:51:09.450Z,100.00
2022-12-07T01:52:10.796Z,100.00
2022-12-07T01:53:13.479Z,100.00
2022-12-07T01:54:15.783Z,100.00
2022-12-07T01:55:17.389Z,100.00
2022-12-07T01:56:21.413Z,100.00
2022-12-07T01:57:23.090Z,100.00
2022-12-07T01:58:24.876Z,100.00
2022-12-07T01:59:26.772Z,100.00
2022-12-07T02:00:28.086Z,100.00
2022-12-07T02:01:29.587Z,100.00
2022-12-07T02:02:34.004Z,100.00
2022-12-07T02:03:43.089Z,100.00
2022-12-07T02:04:44.933Z,100.00
2022-12-07T02:05:47.200Z,100.00
2022-12-07T02:06:48.508Z,100.00
2022-12-07T02:07:50.260Z,100.00
2022-12-07T02:08:51.949Z,100.00
2022-12-07T02:09:53.352Z,100.00
2022-12-07T02:10:55.379Z,100.00
2022-12-07T02:12:00.222Z,100.00
2022-12-07T02:13:05.010Z,100.00
2022-12-07T02:14:06.579Z,100.00
2022-12-07T02:15:08.447Z,100.00
2022-12-07T02:16:26.321Z,100.00
2022-12-07T02:17:43.151Z,100.00
2022-12-07T02:18:56.544Z,100.00
2022-12-07T02:20:04.129Z,100.00
2022-12-07T02:21:12.780Z,100.00
2022-12-07T02:22:14.143Z,100.00
2022-12-07T02:23:40.257Z,100.00
2022-12-07T02:24:50.723Z,100.00
2022-12-07T02:26:10.671Z,100.00
2022-12-07T02:27:11.998Z,100.00
2022-12-07T02:28:26.366Z,100.00
2022-12-07T02:29:46.386Z,100.00
2022-12-07T02:30:49.572Z,100.00
2022-12-07T02:32:04.776Z,100.00
2022-12-07T02:33:29.022Z,100.00
2022-12-07T02:34:36.224Z,100.00
2022-12-07T02:35:41.563Z,100.00
2022-12-07T02:36:52.261Z,100.00
2022-12-07T02:38:03.232Z,100.00
2022-12-07T02:39:10.420Z,100.00
2022-12-07T02:40:17.977Z,100.00
2022-12-07T02:41:22.905Z,100.00
2022-12-07T02:42:27.037Z,100.00
2022-12-07T02:43:29.825Z,100.00
2022-12-07T02:44:32.495Z,100.00
2022-12-07T02:45:35.659Z,100.00
2022-12-07T02:46:40.256Z,100.00
2022-12-07T02:47:42.263Z,100.00
2022-12-07T02:48:44.111Z,100.00
2022-12-07T02:49:45.903Z,100.00
2022-12-07T02:50:54.190Z,100.00
2022-12-07T02:51:55.629Z,100.00
2022-12-07T02:52:57.039Z,100.00
2022-12-07T02:53:58.358Z,100.00
2022-12-07T02:54:59.895Z,100.00
2022-12-07T02:56:08.198Z,100.00
2022-12-07T02:57:09.649Z,100.00
2022-12-07T02:58:40.071Z,100.00
2022-12-07T02:59:47.036Z,100.00
2022-12-07T03:01:08.083Z,100.00
2022-12-07T03:02:09.478Z,100.00
2022-12-07T03:03:13.562Z,100.00
2022-12-07T03:04:21.140Z,100.00
2022-12-07T03:05:40.732Z,100.00
2022-12-07T03:06:46.529Z,100.00
2022-12-07T03:08:26.158Z,100.00
2022-12-07T03:09:33.390Z,100.00
2022-12-07T03:10:43.591Z,100.00
2022-12-07T03:12:07.742Z,100.00
2022-12-07T03:13:13.115Z,100.00
2022-12-07T03:14:18.571Z,100.00
2022-12-07T03:15:27.354Z,100.00
2022-12-07T03:16:32.244Z,100.00
2022-12-07T03:17:35.882Z,100.00
2022-12-07T03:18:44.498Z,100.00
2022-12-07T03:19:47.208Z,100.00
2022-12-07T03:20:51.093Z,100.00
2022-12-07T03:21:55.801Z,100.00
2022-12-07T03:22:57.643Z,100.00
2022-12-07T03:24:00.924Z,100.00
2022-12-07T03:25:05.245Z,100.00
2022-12-07T03:26:09.577Z,100.00
2022-12-07T03:27:14.580Z,100.00
2022-12-07T03:28:18.281Z,100.00
2022-12-07T03:29:28.654Z,100.00
2022-12-07T03:30:37.622Z,100.00
2022-12-07T03:31:41.318Z,100.00
2022-12-07T03:32:46.189Z,100.00
2022-12-07T03:33:54.222Z,100.00
2022-12-07T03:35:02.715Z,100.00
2022-12-07T03:36:11.560Z,100.00
2022-12-07T03:37:24.763Z,100.00
2022-12-07T03:38:34.240Z,100.00
2022-12-07T03:39:42.040Z,100.00
2022-12-07T03:41:01.174Z,100.00
2022-12-07T03:42:04.584Z,100.00
2022-12-07T03:43:06.122Z,100.00
2022-12-07T03:44:07.622Z,100.00
2022-12-07T03:45:10.021Z,100.00
2022-12-07T03:46:23.613Z,100.00
2022-12-07T03:47:30.658Z,100.00
2022-12-07T03:48:35.090Z,100.00
2022-12-07T03:49:46.900Z,100.00
2022-12-07T03:50:53.612Z,100.00
2022-12-07T03:52:09.712Z,100.00
2022-12-07T03:53:15.217Z,100.00
2022-12-07T03:54:20.710Z,100.00
2022-12-07T03:55:22.084Z,100.00
2022-12-07T03:56:23.565Z,100.00
2022-12-07T03:57:26.798Z,100.00
2022-12-07T03:58:28.950Z,100.00
2022-12-07T03:59:30.809Z,100.00
2022-12-07T04:00:32.230Z,100.00
2022-12-07T04:01:33.771Z,100.00
2022-12-07T04:02:35.117Z,100.00
2022-12-07T04:03:36.448Z,100.00
2022-12-07T04:04:37.829Z,100.00
2022-12-07T04:05:40.002Z,100.00
2022-12-07T04:06:41.357Z,100.00
2022-12-07T04:07:42.779Z,100.00
2022-12-07T04:08:44.153Z,100.00
2022-12-07T04:09:45.527Z,100.00
2022-12-07T04:10:46.859Z,100.00
2022-12-07T04:11:48.200Z,100.00
2022-12-07T04:12:49.586Z,100.00
2022-12-07T04:13:50.916Z,100.00
2022-12-07T04:14:52.371Z,100.00
2022-12-07T04:15:53.761Z,100.00
2022-12-07T04:16:56.395Z,100.00
2022-12-07T04:17:57.770Z,100.00
2022-12-07T04:18:59.153Z,100.00
2022-12-07T04:20:01.101Z,100.00
2022-12-07T04:21:02.678Z,100.00
2022-12-07T04:22:04.624Z,100.00
2022-12-07T04:23:06.080Z,100.00
2022-12-07T04:24:07.574Z,100.00
2022-12-07T04:25:09.043Z,100.00
2022-12-07T04:26:10.454Z,100.00
2022-12-07T04:27:11.897Z,100.00
2022-12-07T04:28:13.271Z,100.00
2022-12-07T04:29:14.937Z,100.00
2022-12-07T04:30:16.374Z,100.00
2022-12-07T04:31:17.863Z,100.00
2022-12-07T04:32:19.263Z,100.00
2022-12-07T04:33:20.613Z,100.00
2022-12-07T04:34:22.095Z,100.00
2022-12-07T04:35:23.470Z,100.00
2022-12-07T04:36:25.010Z,100.00
2022-12-07T04:37:26.437Z,100.00
2022-12-07T04:38:27.796Z,100.00
2022-12-07T04:39:30.525Z,100.00
2022-12-07T04:40:31.862Z,100.00
2022-12-07T04:41:33.237Z,100.00
2022-12-07T04:42:34.592Z,100.00
2022-12-07T04:43:36.645Z,100.00
2022-12-07T04:44:38.028Z,100.00
2022-12-07T04:45:39.388Z,100.00
2022-12-07T04:46:40.768Z,100.00
2022-12-07T04:47:42.249Z,100.00
2022-12-07T04:48:43.619Z,100.00
2022-12-07T04:49:44.983Z,100.00
2022-12-07T04:50:48.884Z,100.00
2022-12-07T04:51:50.384Z,100.00
2022-12-07T04:52:51.722Z,100.00
2022-12-07T04:53:53.412Z,100.00
2022-12-07T04:54:54.828Z,100.00
2022-12-07T04:55:56.145Z,100.00
2022-12-07T04:56:57.591Z,100.00
2022-12-07T04:57:58.931Z,100.00
2022-12-07T04:59:00.334Z,100.00
2022-12-07T05:00:02.173Z,100.00
2022-12-07T05:01:03.938Z,100.00
2022-12-07T05:02:05.452Z,100.00
2022-12-07T05:03:06.933Z,100.00
2022-12-07T05:04:09.005Z,100.00
2022-12-07T05:05:10.345Z,100.00
2022-12-07T05:06:13.757Z,100.00
2022-12-07T05:07:15.505Z,100.00
2022-12-07T05:08:16.870Z,100.00
2022-12-07T05:09:18.252Z,100.00
2022-12-07T05:10:19.598Z,100.00
2022-12-07T05:11:21.345Z,100.00
2022-12-07T05:12:22.691Z,100.00
2022-12-07T05:13:24.051Z,100.00
2022-12-07T05:14:25.451Z,100.00
2022-12-07T05:15:26.884Z,100.00
2022-12-07T05:16:28.720Z,100.00
2022-12-07T05:17:30.152Z,100.00
2022-12-07T05:18:31.544Z,100.00
2022-12-07T05:19:32.889Z,100.00
2022-12-07T05:20:37.863Z,100.00
2022-12-07T05:21:43.908Z,100.00
2022-12-07T05:22:48.149Z,100.00
2022-12-07T05:23:50.926Z,100.00
2022-12-07T05:24:52.290Z,100.00
2022-12-07T05:25:58.683Z,100.00
2022-12-07T05:27:04.102Z,100.00
2022-12-07T05:28:06.378Z,100.00
2022-12-07T05:29:09.984Z,100.00
2022-12-07T05:30:12.735Z,100.00
2022-12-07T05:31:22.197Z,100.00
2022-12-07T05:32:25.736Z,100.00
2022-12-07T05:33:27.552Z,100.00
2022-12-07T05:34:29.171Z,100.00
2022-12-07T05:35:31.168Z,100.00
2022-12-07T05:36:33.123Z,100.00
2022-12-07T05:37:34.679Z,100.00
2022-12-07T05:38:36.024Z,100.00
2022-12-07T05:39:38.776Z,100.00
2022-12-07T05:40:41.949Z,100.00
2022-12-07T05:41:44.155Z,100.00
2022-12-07T05:42:46.089Z,100.00
2022-12-07T05:43:48.115Z,100.00
2022-12-07T05:44:49.441Z,100.00
2022-12-07T05:45:50.793Z,100.00
2022-12-07T05:46:52.471Z,100.00
2022-12-07T05:47:53.925Z,100.00
2022-12-07T05:48:55.291Z,100.00
2022-12-07T05:49:56.740Z,100.00
2022-12-07T05:50:58.139Z,100.00
2022-12-07T05:51:59.537Z,100.00
2022-12-07T05:53:01.124Z,100.00
2022-12-07T05:54:02.701Z,100.00
2022-12-07T05:55:04.797Z,100.00
2022-12-07T05:56:06.293Z,100.00
2022-12-07T05:57:07.708Z,100.00
2022-12-07T05:58:09.098Z,100.00
2022-12-07T05:59:10.699Z,100.00
2022-12-07T06:00:12.483Z,100.00
2022-12-07T06:01:13.946Z,100.00
2022-12-07T06:02:17.483Z,100.00
2022-12-07T06:03:19.192Z,100.00
2022-12-07T06:04:21.501Z,100.00
2022-12-07T06:05:23.248Z,100.00
2022-12-07T06:06:25.286Z,100.00
2022-12-07T06:07:26.945Z,100.00
2022-12-07T06:08:28.339Z,100.00
2022-12-07T06:09:30.239Z,100.00
2022-12-07T06:10:31.564Z,100.00
2022-12-07T06:11:32.950Z,100.00
2022-12-07T06:12:34.344Z,100.00
2022-12-07T06:13:36.080Z,100.00
2022-12-07T06:14:37.777Z,100.00
2022-12-07T06:15:39.339Z,100.00
2022-12-07T06:16:40.801Z,100.00
2022-12-07T06:17:42.177Z,100.00
2022-12-07T06:18:43.581Z,100.00
2022-12-07T06:19:44.941Z,100.00
2022-12-07T06:20:46.923Z,100.00
2022-12-07T06:21:48.849Z,100.00
2022-12-07T06:22:50.187Z,100.00
2022-12-07T06:23:51.574Z,100.00
2022-12-07T06:24:53.164Z,100.00
2022-12-07T06:25:54.597Z,100.00
2022-12-07T06:26:55.964Z,100.00
2022-12-07T06:27:57.296Z,100.00
2022-12-07T06:28:58.661Z,100.00
2022-12-07T06:30:00.200Z,100.00
2022-12-07T06:31:02.640Z,100.00
2022-12-07T06:32:04.361Z,100.00
2022-12-07T06:33:05.839Z,100.00
2022-12-07T06:34:09.753Z,100.00
2022-12-07T06:35:11.540Z,100.00
2022-12-07T06:36:13.375Z,100.00
2022-12-07T06:37:14.863Z,100.00
2022-12-07T06:38:16.196Z,100.00
2022-12-07T06:39:18.004Z,100.00
2022-12-07T06:40:19.357Z,100.00
2022-12-07T06:41:20.980Z,100.00
2022-12-07T06:42:22.440Z,100.00
2022-12-07T06:43:23.780Z,100.00
2022-12-07T06:44:25.390Z,100.00
2022-12-07T06:45:26.829Z,100.00
2022-12-07T06:46:28.324Z,100.00
2022-12-07T06:47:40.593Z,100.00
2022-12-07T06:48:43.495Z,100.00
2022-12-07T06:49:44.891Z,100.00
2022-12-07T06:50:52.803Z,100.00
2022-12-07T06:51:56.175Z,100.00
2022-12-07T06:52:57.573Z,100.00
2022-12-07T06:53:59.009Z,100.00
2022-12-07T06:55:00.662Z,100.00
2022-12-07T06:56:02.078Z,100.00
2022-12-07T06:57:03.661Z,100.00
2022-12-07T06:58:05.005Z,100.00
2022-12-07T06:59:06.853Z,100.00
2022-12-07T07:00:08.510Z,100.00
2022-12-07T07:01:10.904Z,100.00
2022-12-07T07:02:12.351Z,100.00
2022-12-07T07:03:13.753Z,100.00
2022-12-07T07:04:15.101Z,100.00
2022-12-07T07:05:16.456Z,100.00
2022-12-07T07:06:17.778Z,100.00
2022-12-07T07:07:19.156Z,100.00
2022-12-07T07:08:22.282Z,100.00
2022-12-07T07:09:24.321Z,100.00
2022-12-07T07:10:25.701Z,100.00
2022-12-07T07:11:27.195Z,100.00
2022-12-07T07:12:28.521Z,100.00
2022-12-07T07:13:29.918Z,100.00
2022-12-07T07:14:31.282Z,100.00
2022-12-07T07:15:33.457Z,100.00
2022-12-07T07:16:34.915Z,100.00
2022-12-07T07:17:36.256Z,100.00
2022-12-07T07:18:37.768Z,100.00
2022-12-07T07:19:39.144Z,100.00
2022-12-07T07:20:40.642Z,100.00
2022-12-07T07:21:42.016Z,100.00
2022-12-07T07:22:43.376Z,100.00
2022-12-07T07:23:44.815Z,100.00
2022-12-07T07:24:46.307Z,100.00
2022-12-07T07:25:47.987Z,100.00
2022-12-07T07:26:49.358Z,100.00
2022-12-07T07:27:50.703Z,100.00
2022-12-07T07:28:52.084Z,100.00
2022-12-07T07:29:53.407Z,100.00
2022-12-07T07:30:54.883Z,100.00
2022-12-07T07:31:57.182Z,100.00
2022-12-07T07:33:01.745Z,100.00
2022-12-07T07:34:10.293Z,100.00
2022-12-07T07:35:11.647Z,100.00
2022-12-07T07:36:13.074Z,100.00
2022-12-07T07:37:20.233Z,100.00
2022-12-07T07:38:23.276Z,100.00
2022-12-07T07:39:24.612Z,100.00
2022-12-07T07:40:26.328Z,100.00
2022-12-07T07:41:27.719Z,100.00
2022-12-07T07:42:29.051Z,100.00
2022-12-07T07:43:30.494Z,100.00
2022-12-07T07:44:35.289Z,100.00
2022-12-07T07:45:36.995Z,100.00
2022-12-07T07:46:38.506Z,100.00
2022-12-07T07:47:39.908Z,100.00
2022-12-07T07:48:41.245Z,100.00
2022-12-07T07:49:47.792Z,100.00
2022-12-07T07:50:49.678Z,100.00
2022-12-07T07:51:51.016Z,100.00
2022-12-07T07:52:52.433Z,100.00
2022-12-07T07:53:53.816Z,100.00
2022-12-07T07:54:55.176Z,100.00
2022-12-07T07:55:56.502Z,100.00
2022-12-07T07:56:57.828Z,100.00
2022-12-07T07:57:59.223Z,100.00
2022-12-07T07:59:00.597Z,100.00
2022-12-07T08:00:02.797Z,100.00
2022-12-07T08:01:13.705Z,100.00
2022-12-07T08:02:19.035Z,100.00
2022-12-07T08:03:20.513Z,100.00
2022-12-07T08:04:21.925Z,100.00
2022-12-07T08:05:23.251Z,100.00
2022-12-07T08:06:29.073Z,100.00
2022-12-07T08:07:33.466Z,100.00
2022-12-07T08:08:34.770Z,100.00
2022-12-07T08:09:36.157Z,100.00
2022-12-07T08:10:37.587Z,100.00
2022-12-07T08:11:38.926Z,100.00
2022-12-07T08:12:41.270Z,99.53
2022-12-07T08:13:42.672Z,98.77
2022-12-07T08:14:44.000Z,98.02
2022-12-07T08:15:46.565Z,98.22
2022-12-07T08:16:47.986Z,97.19
2022-12-07T08:17:49.357Z,97.61
2022-12-07T08:18:50.711Z,97.96
2022-12-07T08:19:52.070Z,97.22
2022-12-07T08:20:59.241Z,97.29
2022-12-07T08:22:00.619Z,97.21
2022-12-07T08:23:02.076Z,96.74
2022-12-07T08:24:03.533Z,95.50
2022-12-07T08:25:05.048Z,94.14
2022-12-07T08:26:08.122Z,95.12
2022-12-07T08:27:09.557Z,94.99
2022-12-07T08:28:10.895Z,94.92
2022-12-07T08:29:12.241Z,94.62
2022-12-07T08:30:13.692Z,94.55
2022-12-07T08:31:16.903Z,93.92
2022-12-07T08:32:18.286Z,92.88
2022-12-07T08:33:19.674Z,92.46
2022-12-07T08:34:21.056Z,92.98
2022-12-07T08:35:22.695Z,93.74
2022-12-07T08:36:24.177Z,94.34
2022-12-07T08:37:25.484Z,94.65
2022-12-07T08:38:31.567Z,94.52
2022-12-07T08:39:33.395Z,95.15
2022-12-07T08:40:34.748Z,94.52
2022-12-07T08:41:36.115Z,94.24
2022-12-07T08:42:37.465Z,94.87
2022-12-07T08:43:38.861Z,93.50
2022-12-07T08:44:40.227Z,92.53
2022-12-07T08:45:41.752Z,92.44
2022-12-07T08:46:47.598Z,92.51
2022-12-07T08:47:51.787Z,92.22
2022-12-07T08:48:56.203Z,92.01
2022-12-07T08:49:57.656Z,91.32
2022-12-07T08:50:59.060Z,90.90
2022-12-07T08:52:00.381Z,91.02
2022-12-07T08:53:02.056Z,92.04
2022-12-07T08:54:06.387Z,91.76
2022-12-07T08:55:09.546Z,93.14
2022-12-07T08:56:11.275Z,92.85
2022-12-07T08:57:12.690Z,92.31
2022-12-07T08:58:14.383Z,92.55
2022-12-07T08:59:16.781Z,90.15
2022-12-07T09:00:18.615Z,91.20
2022-12-07T09:01:20.057Z,91.43
2022-12-07T09:02:21.451Z,90.09
2022-12-07T09:03:22.888Z,88.62
2022-12-07T09:04:24.251Z,88.85
2022-12-07T09:05:25.710Z,89.34
2022-12-07T09:06:27.541Z,90.41
2022-12-07T09:07:31.038Z,88.73
2022-12-07T09:08:35.745Z,89.53
2022-12-07T09:09:37.102Z,90.04
2022-12-07T09:10:38.451Z,87.93
2022-12-07T09:11:39.826Z,88.71
2022-12-07T09:12:41.307Z,88.96
2022-12-07T09:13:42.756Z,88.64
2022-12-07T09:14:44.101Z,88.36
2022-12-07T09:15:45.693Z,88.21
2022-12-07T09:16:47.129Z,86.45
2022-12-07T09:17:48.490Z,87.26
2022-12-07T09:18:49.883Z,86.77
2022-12-07T09:19:51.187Z,87.21
2022-12-07T09:20:52.578Z,87.16
2022-12-07T09:21:53.929Z,86.54
2022-12-07T09:22:55.258Z,87.22
2022-12-07T09:23:56.795Z,86.97
2022-12-07T09:24:58.689Z,85.92
2022-12-07T09:26:01.484Z,86.28
2022-12-07T09:27:04.352Z,86.67
2022-12-07T09:28:05.853Z,86.41
2022-12-07T09:29:07.244Z,85.71
2022-12-07T09:30:08.876Z,85.80
2022-12-07T09:31:26.417Z,85.67
2022-12-07T09:32:28.132Z,85.92
2022-12-07T09:33:30.551Z,85.24
2022-12-07T09:34:32.640Z,85.75
2022-12-07T09:35:34.045Z,85.83
2022-12-07T09:36:35.588Z,86.63
2022-12-07T09:37:36.920Z,85.47
2022-12-07T09:38:38.277Z,85.07
2022-12-07T09:39:44.630Z,85.17
2022-12-07T09:40:49.541Z,85.73
2022-12-07T09:41:50.989Z,85.95
2022-12-07T09:42:54.469Z,86.32
2022-12-07T09:43:59.293Z,85.94
2022-12-07T09:45:01.137Z,86.44
2022-12-07T09:46:02.723Z,87.98
2022-12-07T09:47:04.238Z,87.19
2022-12-07T09:48:05.900Z,87.66
2022-12-07T09:49:12.531Z,86.39
2022-12-07T09:50:15.649Z,86.41
2022-12-07T09:51:24.013Z,87.33
2022-12-07T09:52:27.505Z,87.34
2022-12-07T09:53:30.468Z,86.16
2022-12-07T09:54:32.715Z,87.13
2022-12-07T09:55:34.548Z,86.66
2022-12-07T09:56:36.095Z,87.34
2022-12-07T09:57:37.411Z,88.19
2022-12-07T09:58:39.027Z,87.35
2022-12-07T09:59:40.915Z,87.70
2022-12-07T10:00:42.223Z,88.49
2022-12-07T10:01:43.963Z,88.63
2022-12-07T10:02:47.445Z,88.95
2022-12-07T10:03:51.941Z,89.11
2022-12-07T10:04:53.549Z,88.77
2022-12-07T10:05:54.986Z,89.22
2022-12-07T10:06:56.357Z,88.47
2022-12-07T10:07:57.746Z,88.80
2022-12-07T10:08:59.144Z,88.24
2022-12-07T10:10:02.610Z,89.21
2022-12-07T10:11:04.096Z,87.05
2022-12-07T10:12:09.786Z,86.85
2022-12-07T10:13:15.283Z,86.63
2022-12-07T10:14:16.571Z,86.10
2022-12-07T10:15:17.974Z,87.25
2022-12-07T10:16:25.460Z,88.30
2022-12-07T10:17:35.785Z,88.62
2022-12-07T10:18:40.987Z,87.50
2022-12-07T10:19:42.407Z,87.86
2022-12-07T10:20:45.005Z,88.54
2022-12-07T10:22:03.906Z,88.50
2022-12-07T10:23:06.904Z,89.43
2022-12-07T10:24:11.118Z,89.05
2022-12-07T10:25:19.847Z,89.76
2022-12-07T10:26:38.909Z,90.14
2022-12-07T10:27:40.438Z,91.27
2022-12-07T10:28:42.424Z,91.30
2022-12-07T10:29:48.187Z,90.80
2022-12-07T10:30:59.950Z,90.90
2022-12-07T10:32:03.421Z,90.23
2022-12-07T10:33:16.263Z,89.60
2022-12-07T10:34:26.772Z,91.27
2022-12-07T10:35:29.597Z,91.00
2022-12-07T10:36:33.637Z,91.63
2022-12-07T10:37:40.827Z,92.79
2022-12-07T10:38:45.181Z,91.74
2022-12-07T10:39:51.176Z,92.60
2022-12-07T10:41:03.788Z,92.86
2022-12-07T10:42:05.121Z,92.41
2022-12-07T10:43:12.654Z,92.18
2022-12-07T10:44:21.846Z,91.80
2022-12-07T10:45:23.264Z,92.24
2022-12-07T10:46:39.786Z,92.21
2022-12-07T10:47:47.400Z,92.17
2022-12-07T10:49:07.472Z,93.15
2022-12-07T10:50:08.777Z,92.36
2022-12-07T10:51:18.278Z,92.55
2022-12-07T10:52:26.741Z,92.26
2022-12-07T10:53:46.735Z,92.42
2022-12-07T10:55:12.752Z,93.28
2022-12-07T10:56:20.129Z,92.98
2022-12-07T10:57:24.279Z,92.98
2022-12-07T10:58:45.839Z,93.22
2022-12-07T10:59:53.368Z,92.38
2022-12-07T11:01:13.259Z,92.88
2022-12-07T11:02:22.661Z,93.19
2022-12-07T11:03:34.011Z,93.00
2022-12-07T11:04:41.440Z,92.82
2022-12-07T11:05:45.856Z,92.02
2022-12-07T11:07:05.912Z,93.25
2022-12-07T11:08:10.174Z,93.32
2022-12-07T11:09:33.591Z,94.33
2022-12-07T11:10:41.724Z,94.53
2022-12-07T11:11:47.313Z,94.79
2022-12-07T11:13:01.092Z,94.65
2022-12-07T11:14:11.575Z,95.14
2022-12-07T11:15:19.059Z,94.33
2022-12-07T11:16:25.085Z,94.33
2022-12-07T11:17:26.484Z,94.78
2022-12-07T11:18:36.166Z,94.46
2022-12-07T11:19:50.407Z,95.79
2022-12-07T11:21:11.981Z,95.56
2022-12-07T11:22:33.609Z,94.97
2022-12-07T11:23:47.218Z,95.16
2022-12-07T11:24:48.592Z,94.21
2022-12-07T11:25:52.772Z,94.99
2022-12-07T11:27:12.766Z,93.72
2022-12-07T11:28:17.337Z,92.75
2022-12-07T11:29:37.731Z,92.69
2022-12-07T11:30:57.636Z,92.76
2022-12-07T11:32:05.332Z,92.49
2022-12-07T11:33:18.887Z,91.99
2022-12-07T11:34:38.990Z,93.20
2022-12-07T11:35:49.778Z,93.07
2022-12-07T11:36:53.534Z,93.37
2022-12-07T11:38:00.427Z,93.19
2022-12-07T11:39:22.140Z,92.36
2022-12-07T11:40:36.006Z,92.68
2022-12-07T11:41:39.555Z,91.96
2022-12-07T11:42:43.412Z,92.24
2022-12-07T11:43:44.745Z,92.20
2022-12-07T11:44:46.209Z,91.44
2022-12-07T11:45:52.527Z,92.60
2022-12-07T11:47:02.978Z,93.23
2022-12-07T11:48:11.478Z,93.29
2022-12-07T11:49:20.299Z,94.04
2022-12-07T11:50:36.744Z,93.41
2022-12-07T11:51:39.289Z,93.36
2022-12-07T11:52:40.576Z,91.57
2022-12-07T11:53:47.922Z,91.52
2022-12-07T11:54:50.756Z,91.23
2022-12-07T11:56:02.575Z,90.39
2022-12-07T11:57:06.730Z,91.66
2022-12-07T11:58:26.888Z,91.31
2022-12-07T11:59:33.941Z,89.38
2022-12-07T12:00:35.939Z,90.99
2022-12-07T12:01:37.309Z,91.10
2022-12-07T12:02:49.292Z,91.63
2022-12-07T12:03:53.976Z,92.52
2022-12-07T12:04:59.380Z,91.64
2022-12-07T12:06:00.767Z,92.45
2022-12-07T12:10:01.667Z,90.89
2022-12-07T12:11:15.491Z,92.20
2022-12-07T12:14:35.562Z,93.60
2022-12-07T12:15:55.855Z,92.56
2022-12-07T12:17:08.018Z,90.96
2022-12-07T12:18:21.435Z,91.65
2022-12-07T12:19:31.954Z,92.17
2022-12-07T12:20:41.644Z,90.96
2022-12-07T12:21:43.664Z,91.35
2022-12-07T12:22:54.584Z,91.46
2022-12-07T12:23:57.724Z,91.39
2022-12-07T12:24:59.517Z,91.18
2022-12-07T12:26:03.141Z,90.83
2022-12-07T12:27:08.659Z,90.90
2022-12-07T12:28:33.000Z,91.58
2022-12-07T12:29:39.564Z,91.71
2022-12-07T12:30:41.473Z,92.46
2022-12-07T12:31:42.898Z,92.82
2022-12-07T12:32:45.496Z,91.66
2022-12-07T12:33:49.216Z,91.79
2022-12-07T12:34:53.318Z,91.84
2022-12-07T12:36:13.456Z,90.65
2022-12-07T12:37:35.046Z,91.30
2022-12-07T12:38:49.432Z,91.62
2022-12-07T12:40:09.234Z,91.57
2022-12-07T12:41:30.551Z,92.24
2022-12-07T12:42:44.748Z,92.43
2022-12-07T12:43:51.043Z,92.77
2022-12-07T12:45:11.027Z,91.74
2022-12-07T12:46:30.620Z,92.28
2022-12-07T12:47:50.692Z,92.90
2022-12-07T12:48:53.492Z,93.56
2022-12-07T12:50:17.328Z,92.96
2022-12-07T12:51:38.670Z,92.30
2022-12-07T12:52:40.038Z,91.88
2022-12-07T12:53:41.707Z,92.45
2022-12-07T12:55:12.462Z,92.21
2022-12-07T12:56:13.859Z,92.10
2022-12-07T12:57:32.183Z,92.16
2022-12-07T12:58:37.726Z,91.27
2022-12-07T12:59:48.132Z,91.27
2022-12-07T13:01:09.533Z,91.23
2022-12-07T13:02:10.982Z,90.16
2022-12-07T13:03:41.912Z,91.43
2022-12-07T13:04:55.064Z,91.91
2022-12-07T13:06:25.280Z,92.16
2022-12-07T13:07:44.920Z,92.94
2022-12-07T13:08:47.147Z,92.32
2022-12-07T13:09:48.557Z,92.25
2022-12-07T13:10:49.931Z,91.78
2022-12-07T13:12:20.474Z,92.70
2022-12-07T13:13:21.839Z,92.99
2022-12-07T13:14:38.379Z,91.99
2022-12-07T13:15:39.756Z,92.60
2022-12-07T13:16:41.769Z,92.71
2022-12-07T13:17:44.706Z,92.86
2022-12-07T13:18:46.158Z,93.74
2022-12-07T13:19:53.405Z,92.31
2022-12-07T13:20:54.694Z,92.97
2022-12-07T13:21:56.094Z,92.57
2022-12-07T13:22:59.931Z,93.43
2022-12-07T13:24:03.059Z,92.41
2022-12-07T13:25:21.293Z,93.00
2022-12-07T13:26:22.938Z,92.93
2022-12-07T13:27:26.387Z,92.73
2022-12-07T13:28:33.133Z,93.20
2022-12-07T13:29:37.747Z,93.11
2022-12-07T13:30:46.472Z,93.77
2022-12-07T13:31:49.862Z,92.35
2022-12-07T13:32:55.505Z,93.57
2022-12-07T13:33:56.885Z,92.40
2022-12-07T13:34:58.203Z,92.37
2022-12-07T13:35:59.519Z,93.11
2022-12-07T13:37:01.879Z,92.53
2022-12-07T13:38:04.845Z,92.00
2022-12-07T13:39:32.507Z,91.71
2022-12-07T13:40:33.948Z,92.01